sensor_id;sensor_type;location;lat;lon;timestamp;P1;durP1;ratioP1;P2;durP2;ratioP2
51792;SDS011;37850;53.178;6.376;2023-04-24T00:02:18;7.90;;;4.10;;
51792;SDS011;37850;53.178;6.376;2023-04-24T00:04:45;8.45;;;4.45;;
51792;SDS011;37850;53.178;6.376;2023-04-24T00:07:11;9.30;;;4.38;;
51792;SDS011;37850;53.178;6.376;2023-04-24T00:09:38;8.63;;;5.00;;
51792;SDS011;37850;53.178;6.376;2023-04-24T00:12:03;7.10;;;4.30;;
51792;SDS011;37850;53.178;6.376;2023-04-24T00:14:33;8.52;;;4.65;;
51792;SDS011;37850;53.178;6.376;2023-04-24T00:16:59;8.07;;;4.55;;
51792;SDS011;37850;53.178;6.376;2023-04-24T00:19:26;8.15;;;4.60;;
51792;SDS011;37850;53.178;6.376;2023-04-24T00:21:52;8.52;;;4.78;;
51792;SDS011;37850;53.178;6.376;2023-04-24T00:24:18;8.32;;;5.07;;
51792;SDS011;37850;53.178;6.376;2023-04-24T00:26:47;7.60;;;4.65;;
51792;SDS011;37850;53.178;6.376;2023-04-24T00:29:13;7.63;;;4.35;;
51792;SDS011;37850;53.178;6.376;2023-04-24T00:31:39;7.95;;;4.60;;
51792;SDS011;37850;53.178;6.376;2023-04-24T00:34:05;7.65;;;4.50;;
51792;SDS011;37850;53.178;6.376;2023-04-24T00:36:31;8.20;;;4.05;;
51792;SDS011;37850;53.178;6.376;2023-04-24T00:38:57;7.30;;;4.30;;
51792;SDS011;37850;53.178;6.376;2023-04-24T00:41:24;6.78;;;3.47;;
51792;SDS011;37850;53.178;6.376;2023-04-24T00:43:51;6.20;;;3.78;;
51792;SDS011;37850;53.178;6.376;2023-04-24T00:46:17;4.95;;;2.60;;
51792;SDS011;37850;53.178;6.376;2023-04-24T00:48:43;5.95;;;2.50;;
51792;SDS011;37850;53.178;6.376;2023-04-24T00:51:10;4.70;;;1.92;;
51792;SDS011;37850;53.178;6.376;2023-04-24T00:53:35;4.95;;;1.92;;
51792;SDS011;37850;53.178;6.376;2023-04-24T00:56:02;5.30;;;2.13;;
51792;SDS011;37850;53.178;6.376;2023-04-24T00:58:28;4.30;;;2.00;;
51792;SDS011;37850;53.178;6.376;2023-04-24T01:00:55;4.45;;;2.30;;
51792;SDS011;37850;53.178;6.376;2023-04-24T01:03:24;4.38;;;1.80;;
51792;SDS011;37850;53.178;6.376;2023-04-24T01:05:53;4.82;;;1.70;;
51792;SDS011;37850;53.178;6.376;2023-04-24T01:08:20;3.45;;;1.73;;
51792;SDS011;37850;53.178;6.376;2023-04-24T01:10:48;3.33;;;1.85;;
51792;SDS011;37850;53.178;6.376;2023-04-24T01:13:18;3.03;;;1.60;;
51792;SDS011;37850;53.178;6.376;2023-04-24T01:15:45;4.25;;;1.90;;
51792;SDS011;37850;53.178;6.376;2023-04-24T01:18:12;3.45;;;1.65;;
51792;SDS011;37850;53.178;6.376;2023-04-24T01:20:41;3.13;;;1.55;;
51792;SDS011;37850;53.178;6.376;2023-04-24T01:23:09;5.25;;;1.80;;
51792;SDS011;37850;53.178;6.376;2023-04-24T01:25:35;3.75;;;1.77;;
51792;SDS011;37850;53.178;6.376;2023-04-24T01:28:02;3.67;;;1.63;;
51792;SDS011;37850;53.178;6.376;2023-04-24T01:30:28;3.92;;;1.77;;
51792;SDS011;37850;53.178;6.376;2023-04-24T01:32:55;3.15;;;1.77;;
51792;SDS011;37850;53.178;6.376;2023-04-24T01:35:21;3.35;;;1.88;;
51792;SDS011;37850;53.178;6.376;2023-04-24T01:37:47;3.50;;;1.80;;
51792;SDS011;37850;53.178;6.376;2023-04-24T01:40:13;2.53;;;1.70;;
51792;SDS011;37850;53.178;6.376;2023-04-24T01:42:40;3.42;;;1.75;;
51792;SDS011;37850;53.178;6.376;2023-04-24T01:45:06;3.42;;;1.90;;
51792;SDS011;37850;53.178;6.376;2023-04-24T01:50:03;3.78;;;1.98;;
51792;SDS011;37850;53.178;6.376;2023-04-24T01:52:30;3.15;;;1.58;;
51792;SDS011;37850;53.178;6.376;2023-04-24T01:55:01;2.58;;;1.70;;
51792;SDS011;37850;53.178;6.376;2023-04-24T01:57:29;2.83;;;1.55;;
51792;SDS011;37850;53.178;6.376;2023-04-24T01:59:55;3.47;;;1.90;;
51792;SDS011;37850;53.178;6.376;2023-04-24T02:02:22;3.38;;;1.80;;
51792;SDS011;37850;53.178;6.376;2023-04-24T02:04:49;2.83;;;1.70;;
51792;SDS011;37850;53.178;6.376;2023-04-24T02:07:15;4.32;;;2.00;;
51792;SDS011;37850;53.178;6.376;2023-04-24T02:09:41;6.85;;;2.30;;
51792;SDS011;37850;53.178;6.376;2023-04-24T02:12:07;4.00;;;2.53;;
51792;SDS011;37850;53.178;6.376;2023-04-24T02:14:32;3.35;;;2.00;;
51792;SDS011;37850;53.178;6.376;2023-04-24T02:16:58;5.72;;;2.38;;
51792;SDS011;37850;53.178;6.376;2023-04-24T02:19:24;3.97;;;2.60;;
51792;SDS011;37850;53.178;6.376;2023-04-24T02:21:49;5.07;;;2.30;;
51792;SDS011;37850;53.178;6.376;2023-04-24T02:24:15;3.92;;;2.40;;
51792;SDS011;37850;53.178;6.376;2023-04-24T02:26:41;5.38;;;2.60;;
51792;SDS011;37850;53.178;6.376;2023-04-24T02:29:07;4.15;;;2.58;;
51792;SDS011;37850;53.178;6.376;2023-04-24T02:31:32;4.95;;;3.10;;
51792;SDS011;37850;53.178;6.376;2023-04-24T02:33:58;5.22;;;2.72;;
51792;SDS011;37850;53.178;6.376;2023-04-24T02:36:24;7.00;;;3.20;;
51792;SDS011;37850;53.178;6.376;2023-04-24T02:38:50;4.45;;;2.80;;
51792;SDS011;37850;53.178;6.376;2023-04-24T02:41:16;8.43;;;3.30;;
51792;SDS011;37850;53.178;6.376;2023-04-24T02:43:41;5.15;;;3.30;;
51792;SDS011;37850;53.178;6.376;2023-04-24T02:46:07;6.70;;;3.47;;
51792;SDS011;37850;53.178;6.376;2023-04-24T02:48:33;6.45;;;3.60;;
51792;SDS011;37850;53.178;6.376;2023-04-24T02:50:58;6.15;;;4.18;;
51792;SDS011;37850;53.178;6.376;2023-04-24T02:53:24;5.68;;;3.67;;
51792;SDS011;37850;53.178;6.376;2023-04-24T02:55:50;6.38;;;4.35;;
51792;SDS011;37850;53.178;6.376;2023-04-24T02:58:16;6.47;;;4.45;;
51792;SDS011;37850;53.178;6.376;2023-04-24T03:00:42;7.93;;;4.72;;
51792;SDS011;37850;53.178;6.376;2023-04-24T03:03:08;6.68;;;4.97;;
51792;SDS011;37850;53.178;6.376;2023-04-24T03:05:34;7.65;;;5.20;;
51792;SDS011;37850;53.178;6.376;2023-04-24T03:08:00;8.60;;;4.97;;
51792;SDS011;37850;53.178;6.376;2023-04-24T03:10:26;8.50;;;6.00;;
51792;SDS011;37850;53.178;6.376;2023-04-24T03:12:51;8.63;;;6.35;;
51792;SDS011;37850;53.178;6.376;2023-04-24T03:15:17;9.63;;;5.90;;
51792;SDS011;37850;53.178;6.376;2023-04-24T03:17:43;9.52;;;6.50;;
51792;SDS011;37850;53.178;6.376;2023-04-24T03:20:09;9.10;;;6.68;;
51792;SDS011;37850;53.178;6.376;2023-04-24T03:22:35;8.95;;;7.13;;
51792;SDS011;37850;53.178;6.376;2023-04-24T03:25:00;11.35;;;6.80;;
51792;SDS011;37850;53.178;6.376;2023-04-24T03:27:27;8.20;;;6.32;;
51792;SDS011;37850;53.178;6.376;2023-04-24T03:29:52;10.00;;;7.53;;
51792;SDS011;37850;53.178;6.376;2023-04-24T03:32:23;9.10;;;7.13;;
51792;SDS011;37850;53.178;6.376;2023-04-24T03:34:49;11.75;;;8.13;;
51792;SDS011;37850;53.178;6.376;2023-04-24T03:37:15;10.45;;;7.88;;
51792;SDS011;37850;53.178;6.376;2023-04-24T03:39:42;11.48;;;7.50;;
51792;SDS011;37850;53.178;6.376;2023-04-24T03:42:08;10.40;;;8.52;;
51792;SDS011;37850;53.178;6.376;2023-04-24T03:44:34;11.55;;;8.82;;
51792;SDS011;37850;53.178;6.376;2023-04-24T03:47:00;14.18;;;9.40;;
51792;SDS011;37850;53.178;6.376;2023-04-24T03:49:26;12.85;;;9.25;;
51792;SDS011;37850;53.178;6.376;2023-04-24T03:51:51;11.60;;;9.43;;
51792;SDS011;37850;53.178;6.376;2023-04-24T03:54:20;12.40;;;9.35;;
51792;SDS011;37850;53.178;6.376;2023-04-24T03:56:46;15.98;;;9.45;;
51792;SDS011;37850;53.178;6.376;2023-04-24T03:59:12;13.80;;;9.07;;
51792;SDS011;37850;53.178;6.376;2023-04-24T04:01:38;14.25;;;9.85;;
51792;SDS011;37850;53.178;6.376;2023-04-24T04:04:05;14.82;;;9.63;;
51792;SDS011;37850;53.178;6.376;2023-04-24T04:06:31;11.55;;;9.68;;
51792;SDS011;37850;53.178;6.376;2023-04-24T04:08:57;15.45;;;9.93;;
51792;SDS011;37850;53.178;6.376;2023-04-24T04:11:23;12.10;;;9.65;;
51792;SDS011;37850;53.178;6.376;2023-04-24T04:13:49;16.98;;;11.15;;
51792;SDS011;37850;53.178;6.376;2023-04-24T04:16:15;12.88;;;10.80;;
51792;SDS011;37850;53.178;6.376;2023-04-24T04:18:44;16.05;;;11.25;;
51792;SDS011;37850;53.178;6.376;2023-04-24T04:21:10;13.38;;;10.57;;
51792;SDS011;37850;53.178;6.376;2023-04-24T04:23:36;14.98;;;11.68;;
51792;SDS011;37850;53.178;6.376;2023-04-24T04:26:02;18.02;;;11.90;;
51792;SDS011;37850;53.178;6.376;2023-04-24T04:28:29;14.50;;;10.55;;
51792;SDS011;37850;53.178;6.376;2023-04-24T04:30:56;12.82;;;9.32;;
51792;SDS011;37850;53.178;6.376;2023-04-24T04:33:23;10.93;;;7.82;;
51792;SDS011;37850;53.178;6.376;2023-04-24T04:35:49;10.18;;;7.35;;
51792;SDS011;37850;53.178;6.376;2023-04-24T04:38:17;9.43;;;5.15;;
51792;SDS011;37850;53.178;6.376;2023-04-24T04:40:44;7.72;;;4.75;;
51792;SDS011;37850;53.178;6.376;2023-04-24T04:43:10;6.78;;;3.72;;
51792;SDS011;37850;53.178;6.376;2023-04-24T04:45:38;7.00;;;3.40;;
51792;SDS011;37850;53.178;6.376;2023-04-24T04:48:05;7.72;;;3.40;;
51792;SDS011;37850;53.178;6.376;2023-04-24T04:50:33;4.32;;;2.22;;
51792;SDS011;37850;53.178;6.376;2023-04-24T04:52:58;3.78;;;2.10;;
51792;SDS011;37850;53.178;6.376;2023-04-24T04:55:24;4.50;;;2.17;;
51792;SDS011;37850;53.178;6.376;2023-04-24T04:57:51;4.40;;;2.25;;
51792;SDS011;37850;53.178;6.376;2023-04-24T05:00:16;3.38;;;1.50;;
51792;SDS011;37850;53.178;6.376;2023-04-24T05:02:42;4.18;;;1.85;;
51792;SDS011;37850;53.178;6.376;2023-04-24T05:05:08;3.38;;;1.30;;
51792;SDS011;37850;53.178;6.376;2023-04-24T05:07:34;3.85;;;1.40;;
51792;SDS011;37850;53.178;6.376;2023-04-24T05:10:00;2.17;;;1.27;;
51792;SDS011;37850;53.178;6.376;2023-04-24T05:12:26;3.38;;;1.30;;
51792;SDS011;37850;53.178;6.376;2023-04-24T05:14:52;3.25;;;1.30;;
51792;SDS011;37850;53.178;6.376;2023-04-24T05:17:18;2.35;;;1.13;;
51792;SDS011;37850;53.178;6.376;2023-04-24T05:19:43;3.72;;;1.30;;
51792;SDS011;37850;53.178;6.376;2023-04-24T05:22:10;2.92;;;1.40;;
51792;SDS011;37850;53.178;6.376;2023-04-24T05:24:36;2.58;;;1.30;;
51792;SDS011;37850;53.178;6.376;2023-04-24T05:27:03;3.55;;;1.40;;
51792;SDS011;37850;53.178;6.376;2023-04-24T05:29:29;3.38;;;1.30;;
51792;SDS011;37850;53.178;6.376;2023-04-24T05:31:56;4.75;;;1.40;;
51792;SDS011;37850;53.178;6.376;2023-04-24T05:34:22;2.88;;;1.25;;
51792;SDS011;37850;53.178;6.376;2023-04-24T05:36:48;3.38;;;1.63;;
51792;SDS011;37850;53.178;6.376;2023-04-24T05:39:15;5.88;;;1.73;;
51792;SDS011;37850;53.178;6.376;2023-04-24T05:41:41;6.18;;;1.77;;
51792;SDS011;37850;53.178;6.376;2023-04-24T05:44:07;5.68;;;2.30;;
51792;SDS011;37850;53.178;6.376;2023-04-24T05:46:33;5.28;;;2.60;;
51792;SDS011;37850;53.178;6.376;2023-04-24T05:48:59;5.72;;;2.65;;
51792;SDS011;37850;53.178;6.376;2023-04-24T05:51:24;4.88;;;2.72;;
51792;SDS011;37850;53.178;6.376;2023-04-24T05:53:51;7.57;;;2.90;;
51792;SDS011;37850;53.178;6.376;2023-04-24T05:56:17;7.15;;;3.30;;
51792;SDS011;37850;53.178;6.376;2023-04-24T05:58:43;6.38;;;3.17;;
51792;SDS011;37850;53.178;6.376;2023-04-24T06:01:10;7.43;;;3.38;;
51792;SDS011;37850;53.178;6.376;2023-04-24T06:03:37;6.97;;;3.30;;
51792;SDS011;37850;53.178;6.376;2023-04-24T06:06:05;7.68;;;3.63;;
51792;SDS011;37850;53.178;6.376;2023-04-24T06:08:31;8.23;;;3.67;;
51792;SDS011;37850;53.178;6.376;2023-04-24T06:10:57;7.75;;;3.20;;
51792;SDS011;37850;53.178;6.376;2023-04-24T06:13:23;6.95;;;3.42;;
51792;SDS011;37850;53.178;6.376;2023-04-24T06:15:52;8.65;;;3.38;;
51792;SDS011;37850;53.178;6.376;2023-04-24T06:18:18;8.30;;;3.40;;
51792;SDS011;37850;53.178;6.376;2023-04-24T06:20:45;8.70;;;3.35;;
51792;SDS011;37850;53.178;6.376;2023-04-24T06:23:11;6.72;;;3.33;;
51792;SDS011;37850;53.178;6.376;2023-04-24T06:25:37;7.50;;;3.17;;
51792;SDS011;37850;53.178;6.376;2023-04-24T06:28:04;9.02;;;4.00;;
51792;SDS011;37850;53.178;6.376;2023-04-24T06:30:30;8.68;;;3.63;;
51792;SDS011;37850;53.178;6.376;2023-04-24T06:32:56;7.50;;;3.13;;
51792;SDS011;37850;53.178;6.376;2023-04-24T06:35:22;7.13;;;3.08;;
51792;SDS011;37850;53.178;6.376;2023-04-24T06:37:47;8.13;;;3.28;;
51792;SDS011;37850;53.178;6.376;2023-04-24T06:40:13;8.80;;;3.40;;
51792;SDS011;37850;53.178;6.376;2023-04-24T06:42:39;5.90;;;2.70;;
51792;SDS011;37850;53.178;6.376;2023-04-24T06:45:05;7.43;;;2.80;;
51792;SDS011;37850;53.178;6.376;2023-04-24T06:47:31;5.80;;;2.22;;
51792;SDS011;37850;53.178;6.376;2023-04-24T06:49:57;8.15;;;2.13;;
51792;SDS011;37850;53.178;6.376;2023-04-24T06:52:23;7.35;;;1.80;;
51792;SDS011;37850;53.178;6.376;2023-04-24T06:54:48;4.93;;;2.00;;
51792;SDS011;37850;53.178;6.376;2023-04-24T06:57:14;5.18;;;1.75;;
51792;SDS011;37850;53.178;6.376;2023-04-24T06:59:41;6.05;;;1.92;;
51792;SDS011;37850;53.178;6.376;2023-04-24T07:02:07;7.03;;;2.38;;
51792;SDS011;37850;53.178;6.376;2023-04-24T07:04:33;5.38;;;2.00;;
51792;SDS011;37850;53.178;6.376;2023-04-24T07:06:59;4.80;;;2.05;;
51792;SDS011;37850;53.178;6.376;2023-04-24T07:09:25;7.18;;;2.30;;
51792;SDS011;37850;53.178;6.376;2023-04-24T07:11:51;9.23;;;2.55;;
51792;SDS011;37850;53.178;6.376;2023-04-24T07:14:18;9.20;;;2.80;;
51792;SDS011;37850;53.178;6.376;2023-04-24T07:16:44;6.38;;;2.45;;
51792;SDS011;37850;53.178;6.376;2023-04-24T07:19:10;7.90;;;2.60;;
51792;SDS011;37850;53.178;6.376;2023-04-24T07:21:36;6.90;;;2.50;;
51792;SDS011;37850;53.178;6.376;2023-04-24T07:24:02;5.07;;;2.00;;
51792;SDS011;37850;53.178;6.376;2023-04-24T07:26:28;4.78;;;2.00;;
51792;SDS011;37850;53.178;6.376;2023-04-24T07:28:55;10.90;;;1.80;;
51792;SDS011;37850;53.178;6.376;2023-04-24T07:31:21;6.63;;;1.90;;
51792;SDS011;37850;53.178;6.376;2023-04-24T07:33:47;6.93;;;2.15;;
51792;SDS011;37850;53.178;6.376;2023-04-24T07:36:13;11.10;;;2.83;;
51792;SDS011;37850;53.178;6.376;2023-04-24T07:38:44;6.20;;;2.22;;
51792;SDS011;37850;53.178;6.376;2023-04-24T07:41:10;9.40;;;3.30;;
51792;SDS011;37850;53.178;6.376;2023-04-24T07:43:37;15.00;;;5.90;;
51792;SDS011;37850;53.178;6.376;2023-04-24T07:46:03;13.07;;;7.28;;
51792;SDS011;37850;53.178;6.376;2023-04-24T07:48:28;15.75;;;7.05;;
51792;SDS011;37850;53.178;6.376;2023-04-24T07:50:54;17.85;;;8.07;;
51792;SDS011;37850;53.178;6.376;2023-04-24T07:53:20;23.17;;;10.23;;
51792;SDS011;37850;53.178;6.376;2023-04-24T07:55:46;26.70;;;13.00;;
51792;SDS011;37850;53.178;6.376;2023-04-24T07:58:12;25.08;;;13.43;;
51792;SDS011;37850;53.178;6.376;2023-04-24T08:00:38;25.23;;;12.40;;
51792;SDS011;37850;53.178;6.376;2023-04-24T08:03:03;27.42;;;12.82;;
51792;SDS011;37850;53.178;6.376;2023-04-24T08:05:29;27.38;;;13.75;;
51792;SDS011;37850;53.178;6.376;2023-04-24T08:07:55;30.48;;;14.65;;
51792;SDS011;37850;53.178;6.376;2023-04-24T08:10:21;25.13;;;13.18;;
51792;SDS011;37850;53.178;6.376;2023-04-24T08:12:47;24.58;;;13.55;;
51792;SDS011;37850;53.178;6.376;2023-04-24T08:15:13;36.15;;;13.95;;
51792;SDS011;37850;53.178;6.376;2023-04-24T08:17:42;22.52;;;13.27;;
51792;SDS011;37850;53.178;6.376;2023-04-24T08:20:08;26.35;;;11.93;;
51792;SDS011;37850;53.178;6.376;2023-04-24T08:22:39;24.17;;;11.20;;
51792;SDS011;37850;53.178;6.376;2023-04-24T08:25:07;25.63;;;12.15;;
51792;SDS011;37850;53.178;6.376;2023-04-24T08:27:34;20.23;;;11.00;;
51792;SDS011;37850;53.178;6.376;2023-04-24T08:30:01;21.95;;;12.27;;
51792;SDS011;37850;53.178;6.376;2023-04-24T08:32:28;29.20;;;13.25;;
51792;SDS011;37850;53.178;6.376;2023-04-24T08:34:54;25.23;;;11.27;;
51792;SDS011;37850;53.178;6.376;2023-04-24T08:37:23;27.27;;;11.50;;
51792;SDS011;37850;53.178;6.376;2023-04-24T08:39:49;24.33;;;10.70;;
51792;SDS011;37850;53.178;6.376;2023-04-24T08:42:15;22.30;;;10.98;;
51792;SDS011;37850;53.178;6.376;2023-04-24T08:44:43;20.45;;;11.55;;
51792;SDS011;37850;53.178;6.376;2023-04-24T08:47:10;23.42;;;11.45;;
51792;SDS011;37850;53.178;6.376;2023-04-24T08:49:37;22.02;;;11.27;;
51792;SDS011;37850;53.178;6.376;2023-04-24T08:52:05;23.42;;;11.70;;
51792;SDS011;37850;53.178;6.376;2023-04-24T08:54:31;18.60;;;10.82;;
51792;SDS011;37850;53.178;6.376;2023-04-24T08:56:59;22.35;;;10.60;;
51792;SDS011;37850;53.178;6.376;2023-04-24T08:59:27;21.17;;;9.88;;
51792;SDS011;37850;53.178;6.376;2023-04-24T09:01:53;19.52;;;10.38;;
51792;SDS011;37850;53.178;6.376;2023-04-24T09:04:21;17.40;;;8.60;;
51792;SDS011;37850;53.178;6.376;2023-04-24T09:06:49;19.23;;;8.23;;
51792;SDS011;37850;53.178;6.376;2023-04-24T09:09:20;14.68;;;8.27;;
51792;SDS011;37850;53.178;6.376;2023-04-24T09:11:48;15.88;;;8.68;;
51792;SDS011;37850;53.178;6.376;2023-04-24T09:14:15;16.48;;;7.82;;
51792;SDS011;37850;53.178;6.376;2023-04-24T09:16:42;14.65;;;8.20;;
51792;SDS011;37850;53.178;6.376;2023-04-24T09:19:07;14.73;;;7.82;;
51792;SDS011;37850;53.178;6.376;2023-04-24T09:21:34;14.02;;;7.05;;
51792;SDS011;37850;53.178;6.376;2023-04-24T09:24:04;13.93;;;8.73;;
51792;SDS011;37850;53.178;6.376;2023-04-24T09:26:34;16.90;;;7.63;;
51792;SDS011;37850;53.178;6.376;2023-04-24T09:29:01;15.90;;;6.40;;
51792;SDS011;37850;53.178;6.376;2023-04-24T09:31:28;13.73;;;5.70;;
51792;SDS011;37850;53.178;6.376;2023-04-24T09:33:58;13.90;;;6.57;;
51792;SDS011;37850;53.178;6.376;2023-04-24T09:36:32;15.65;;;5.40;;
51792;SDS011;37850;53.178;6.376;2023-04-24T09:39:02;17.65;;;5.95;;
51792;SDS011;37850;53.178;6.376;2023-04-24T09:41:47;16.15;;;5.53;;
51792;SDS011;37850;53.178;6.376;2023-04-24T09:44:18;18.35;;;5.53;;
51792;SDS011;37850;53.178;6.376;2023-04-24T09:46:55;16.63;;;5.63;;
51792;SDS011;37850;53.178;6.376;2023-04-24T09:49:23;14.68;;;5.15;;
51792;SDS011;37850;53.178;6.376;2023-04-24T09:51:50;13.90;;;4.72;;
51792;SDS011;37850;53.178;6.376;2023-04-24T09:54:17;13.35;;;4.50;;
51792;SDS011;37850;53.178;6.376;2023-04-24T09:56:49;11.20;;;4.15;;
51792;SDS011;37850;53.178;6.376;2023-04-24T09:59:19;12.10;;;3.97;;
51792;SDS011;37850;53.178;6.376;2023-04-24T10:01:45;12.95;;;4.40;;
51792;SDS011;37850;53.178;6.376;2023-04-24T10:04:23;14.13;;;4.97;;
51792;SDS011;37850;53.178;6.376;2023-04-24T10:06:51;9.50;;;3.83;;
51792;SDS011;37850;53.178;6.376;2023-04-24T10:09:19;9.55;;;3.30;;
51792;SDS011;37850;53.178;6.376;2023-04-24T10:11:47;14.10;;;4.28;;
51792;SDS011;37850;53.178;6.376;2023-04-24T10:16:49;12.32;;;3.33;;
51792;SDS011;37850;53.178;6.376;2023-04-24T10:19:17;11.90;;;3.13;;
51792;SDS011;37850;53.178;6.376;2023-04-24T10:21:46;10.60;;;3.10;;
51792;SDS011;37850;53.178;6.376;2023-04-24T10:24:13;14.63;;;3.22;;
51792;SDS011;37850;53.178;6.376;2023-04-24T10:26:40;9.50;;;2.85;;
51792;SDS011;37850;53.178;6.376;2023-04-24T10:29:07;11.75;;;2.88;;
51792;SDS011;37850;53.178;6.376;2023-04-24T10:31:35;11.98;;;2.45;;
51792;SDS011;37850;53.178;6.376;2023-04-24T10:34:01;8.57;;;2.63;;
51792;SDS011;37850;53.178;6.376;2023-04-24T10:36:28;12.45;;;3.45;;
51792;SDS011;37850;53.178;6.376;2023-04-24T10:38:58;10.90;;;2.67;;
51792;SDS011;37850;53.178;6.376;2023-04-24T10:41:26;9.35;;;2.65;;
51792;SDS011;37850;53.178;6.376;2023-04-24T10:44:08;10.90;;;2.78;;
51792;SDS011;37850;53.178;6.376;2023-04-24T10:46:35;10.98;;;2.30;;
51792;SDS011;37850;53.178;6.376;2023-04-24T10:49:05;9.93;;;2.50;;
51792;SDS011;37850;53.178;6.376;2023-04-24T10:51:53;8.80;;;2.53;;
51792;SDS011;37850;53.178;6.376;2023-04-24T10:54:29;10.13;;;2.10;;
51792;SDS011;37850;53.178;6.376;2023-04-24T10:59:48;11.73;;;2.72;;
51792;SDS011;37850;53.178;6.376;2023-04-24T11:02:14;10.32;;;2.35;;
51792;SDS011;37850;53.178;6.376;2023-04-24T11:04:41;8.00;;;2.15;;
51792;SDS011;37850;53.178;6.376;2023-04-24T11:07:08;10.88;;;2.10;;
51792;SDS011;37850;53.178;6.376;2023-04-24T11:09:34;9.18;;;2.38;;
51792;SDS011;37850;53.178;6.376;2023-04-24T11:12:11;9.70;;;2.00;;
51792;SDS011;37850;53.178;6.376;2023-04-24T11:20:05;11.23;;;1.90;;
51792;SDS011;37850;53.178;6.376;2023-04-24T11:22:33;8.73;;;2.20;;
51792;SDS011;37850;53.178;6.376;2023-04-24T11:25:00;9.48;;;2.08;;
51792;SDS011;37850;53.178;6.376;2023-04-24T11:27:30;8.93;;;2.00;;
51792;SDS011;37850;53.178;6.376;2023-04-24T11:32:28;7.63;;;1.80;;
51792;SDS011;37850;53.178;6.376;2023-04-24T11:35:06;9.30;;;1.92;;
51792;SDS011;37850;53.178;6.376;2023-04-24T11:37:42;9.90;;;1.92;;
51792;SDS011;37850;53.178;6.376;2023-04-24T11:40:14;10.63;;;2.00;;
51792;SDS011;37850;53.178;6.376;2023-04-24T11:42:42;8.15;;;1.98;;
51792;SDS011;37850;53.178;6.376;2023-04-24T11:45:10;6.28;;;1.40;;
51792;SDS011;37850;53.178;6.376;2023-04-24T11:47:42;7.05;;;1.70;;
51792;SDS011;37850;53.178;6.376;2023-04-24T11:50:13;10.20;;;1.65;;
51792;SDS011;37850;53.178;6.376;2023-04-24T11:55:07;9.95;;;1.85;;
51792;SDS011;37850;53.178;6.376;2023-04-24T11:57:40;9.80;;;1.95;;
51792;SDS011;37850;53.178;6.376;2023-04-24T12:00:14;6.22;;;1.63;;
51792;SDS011;37850;53.178;6.376;2023-04-24T12:02:43;7.15;;;1.20;;
51792;SDS011;37850;53.178;6.376;2023-04-24T12:05:09;8.15;;;1.90;;
51792;SDS011;37850;53.178;6.376;2023-04-24T12:07:43;6.32;;;1.50;;
51792;SDS011;37850;53.178;6.376;2023-04-24T12:10:09;6.38;;;1.77;;
51792;SDS011;37850;53.178;6.376;2023-04-24T12:12:35;6.22;;;1.60;;
51792;SDS011;37850;53.178;6.376;2023-04-24T12:15:01;8.65;;;1.80;;
51792;SDS011;37850;53.178;6.376;2023-04-24T12:17:33;7.60;;;1.67;;
51792;SDS011;37850;53.178;6.376;2023-04-24T12:20:00;6.70;;;1.27;;
51792;SDS011;37850;53.178;6.376;2023-04-24T12:22:44;8.77;;;1.58;;
51792;SDS011;37850;53.178;6.376;2023-04-24T12:25:13;7.25;;;1.35;;
51792;SDS011;37850;53.178;6.376;2023-04-24T12:27:46;4.60;;;1.20;;
51792;SDS011;37850;53.178;6.376;2023-04-24T12:30:17;8.13;;;1.10;;
51792;SDS011;37850;53.178;6.376;2023-04-24T12:32:43;5.55;;;1.20;;
51792;SDS011;37850;53.178;6.376;2023-04-24T12:35:24;7.35;;;1.25;;
51792;SDS011;37850;53.178;6.376;2023-04-24T12:37:51;3.58;;;1.00;;
51792;SDS011;37850;53.178;6.376;2023-04-24T12:40:17;5.75;;;1.10;;
51792;SDS011;37850;53.178;6.376;2023-04-24T12:42:47;7.00;;;1.13;;
51792;SDS011;37850;53.178;6.376;2023-04-24T12:45:15;8.77;;;1.17;;
51792;SDS011;37850;53.178;6.376;2023-04-24T12:47:42;7.85;;;1.38;;
51792;SDS011;37850;53.178;6.376;2023-04-24T12:50:12;7.18;;;1.30;;
51792;SDS011;37850;53.178;6.376;2023-04-24T12:52:40;7.22;;;1.30;;
51792;SDS011;37850;53.178;6.376;2023-04-24T12:55:06;7.90;;;1.27;;
51792;SDS011;37850;53.178;6.376;2023-04-24T12:57:33;10.18;;;1.55;;
51792;SDS011;37850;53.178;6.376;2023-04-24T13:00:00;10.27;;;1.23;;
51792;SDS011;37850;53.178;6.376;2023-04-24T13:02:27;7.30;;;0.95;;
51792;SDS011;37850;53.178;6.376;2023-04-24T13:04:57;9.33;;;1.80;;
51792;SDS011;37850;53.178;6.376;2023-04-24T13:07:23;7.20;;;1.00;;
51792;SDS011;37850;53.178;6.376;2023-04-24T13:09:50;7.63;;;1.10;;
51792;SDS011;37850;53.178;6.376;2023-04-24T13:12:16;6.32;;;1.10;;
51792;SDS011;37850;53.178;6.376;2023-04-24T13:14:43;6.57;;;0.80;;
51792;SDS011;37850;53.178;6.376;2023-04-24T13:17:09;3.63;;;0.90;;
51792;SDS011;37850;53.178;6.376;2023-04-24T13:19:39;2.90;;;0.57;;
51792;SDS011;37850;53.178;6.376;2023-04-24T13:22:06;2.85;;;0.75;;
51792;SDS011;37850;53.178;6.376;2023-04-24T13:24:33;5.32;;;0.70;;
51792;SDS011;37850;53.178;6.376;2023-04-24T13:26:59;3.63;;;0.90;;
51792;SDS011;37850;53.178;6.376;2023-04-24T13:29:26;3.88;;;0.90;;
51792;SDS011;37850;53.178;6.376;2023-04-24T13:31:52;5.55;;;1.25;;
51792;SDS011;37850;53.178;6.376;2023-04-24T13:34:22;4.07;;;0.77;;
51792;SDS011;37850;53.178;6.376;2023-04-24T13:36:50;5.07;;;0.80;;
51792;SDS011;37850;53.178;6.376;2023-04-24T13:39:16;8.80;;;1.67;;
51792;SDS011;37850;53.178;6.376;2023-04-24T13:41:42;6.20;;;0.80;;
51792;SDS011;37850;53.178;6.376;2023-04-24T13:44:08;6.57;;;1.20;;
51792;SDS011;37850;53.178;6.376;2023-04-24T13:46:34;6.70;;;1.35;;
51792;SDS011;37850;53.178;6.376;2023-04-24T13:49:01;9.30;;;1.35;;
51792;SDS011;37850;53.178;6.376;2023-04-24T13:51:28;8.13;;;1.17;;
51792;SDS011;37850;53.178;6.376;2023-04-24T13:53:54;9.57;;;1.25;;
51792;SDS011;37850;53.178;6.376;2023-04-24T13:56:20;4.90;;;1.10;;
51792;SDS011;37850;53.178;6.376;2023-04-24T13:58:49;16.10;;;1.83;;
51792;SDS011;37850;53.178;6.376;2023-04-24T14:01:15;6.20;;;1.60;;
51792;SDS011;37850;53.178;6.376;2023-04-24T14:03:41;11.82;;;1.90;;
51792;SDS011;37850;53.178;6.376;2023-04-24T14:06:10;11.05;;;2.25;;
51792;SDS011;37850;53.178;6.376;2023-04-24T14:08:36;9.43;;;2.35;;
51792;SDS011;37850;53.178;6.376;2023-04-24T14:11:02;16.75;;;2.15;;
51792;SDS011;37850;53.178;6.376;2023-04-24T14:13:27;16.90;;;2.17;;
51792;SDS011;37850;53.178;6.376;2023-04-24T14:15:54;14.05;;;2.22;;
51792;SDS011;37850;53.178;6.376;2023-04-24T14:18:19;11.85;;;2.08;;
51792;SDS011;37850;53.178;6.376;2023-04-24T14:20:45;11.65;;;2.30;;
51792;SDS011;37850;53.178;6.376;2023-04-24T14:23:11;9.90;;;2.45;;
51792;SDS011;37850;53.178;6.376;2023-04-24T14:25:37;9.10;;;1.73;;
51792;SDS011;37850;53.178;6.376;2023-04-24T14:28:02;6.30;;;1.60;;
51792;SDS011;37850;53.178;6.376;2023-04-24T14:30:28;10.98;;;2.10;;
51792;SDS011;37850;53.178;6.376;2023-04-24T14:32:54;8.88;;;1.77;;
51792;SDS011;37850;53.178;6.376;2023-04-24T14:35:21;8.27;;;1.60;;
51792;SDS011;37850;53.178;6.376;2023-04-24T14:37:47;9.30;;;1.60;;
51792;SDS011;37850;53.178;6.376;2023-04-24T14:40:14;6.15;;;1.80;;
51792;SDS011;37850;53.178;6.376;2023-04-24T14:42:40;9.93;;;2.05;;
51792;SDS011;37850;53.178;6.376;2023-04-24T14:45:05;10.45;;;2.40;;
51792;SDS011;37850;53.178;6.376;2023-04-24T14:47:33;14.25;;;2.58;;
51792;SDS011;37850;53.178;6.376;2023-04-24T14:49:58;8.10;;;1.75;;
51792;SDS011;37850;53.178;6.376;2023-04-24T14:52:24;9.10;;;2.28;;
51792;SDS011;37850;53.178;6.376;2023-04-24T14:54:50;15.43;;;2.47;;
51792;SDS011;37850;53.178;6.376;2023-04-24T14:57:16;11.63;;;2.28;;
51792;SDS011;37850;53.178;6.376;2023-04-24T14:59:41;15.73;;;2.63;;